Terminal Aerodrome Forecast
Issued by NWS

Home | Current Version | Previous Version | Text Only | Print | Product List | Glossary On
Versions: 1 2 3 4 5 6 7 8 9 10 11 12
387
FTUS42 KMLB 141726
TAFTIX
TAF
KTIX 141726Z 1418/1518 08012G16KT P6SM BKN035
     FM150100 10007KT P6SM BKN040
     FM151400 12010G16KT P6SM OVC050
     FM151600 13014KT P6SM BKN050=

USA.gov is the U.S. government's official web portal to all federal, state and local government web resources and services.